createdAt,value
2018-08-30T00:00:42.483Z,14.10
2018-08-30T00:03:11.142Z,14.00
2018-08-30T00:05:40.342Z,14.00
2018-08-30T00:08:09.262Z,14.00
2018-08-30T00:10:37.808Z,14.00
2018-08-30T00:13:06.396Z,14.10
2018-08-30T00:15:35.189Z,14.00
2018-08-30T00:18:02.979Z,14.00
2018-08-30T00:20:30.465Z,14.00
2018-08-30T00:22:58.169Z,13.90
2018-08-30T00:25:26.054Z,13.90
2018-08-30T00:27:54.257Z,13.90
2018-08-30T00:30:24.540Z,14.00
2018-08-30T00:32:52.731Z,14.00
2018-08-30T00:38:30.723Z,14.10
2018-08-30T00:40:59.743Z,14.00
2018-08-30T00:43:27.386Z,14.10
2018-08-30T00:45:56.303Z,14.00
2018-08-30T00:48:28.166Z,14.00
2018-08-30T00:50:56.752Z,13.90
2018-08-30T00:53:28.017Z,14.00
2018-08-30T00:55:56.824Z,14.00
2018-08-30T00:58:25.687Z,14.10
2018-08-30T01:00:54.584Z,14.10
2018-08-30T01:03:25.599Z,14.00
2018-08-30T01:05:54.265Z,14.00
2018-08-30T01:08:25.822Z,13.90
2018-08-30T01:10:54.661Z,13.90
2018-08-30T01:13:53.528Z,13.80
2018-08-30T01:16:20.961Z,13.80
2018-08-30T01:18:48.975Z,13.70
2018-08-30T01:21:17.523Z,13.60
2018-08-30T01:23:51.777Z,13.60
2018-08-30T01:26:20.111Z,13.60
2018-08-30T01:28:49.520Z,13.60
2018-08-30T01:31:17.835Z,13.50
2018-08-30T01:33:45.517Z,13.40
2018-08-30T01:36:14.184Z,13.40
2018-08-30T01:38:43.579Z,13.30
2018-08-30T01:41:12.057Z,13.40
2018-08-30T01:43:40.833Z,13.30
2018-08-30T01:46:09.679Z,13.30
2018-08-30T01:48:38.008Z,13.40
2018-08-30T01:51:06.854Z,13.40
2018-08-30T01:53:36.953Z,13.40
2018-08-30T01:56:05.356Z,13.40
2018-08-30T01:58:33.079Z,13.40
2018-08-30T02:01:01.133Z,13.40
2018-08-30T02:03:28.893Z,13.40
2018-08-30T02:05:56.787Z,13.30
2018-08-30T02:08:24.373Z,13.40
2018-08-30T02:10:52.055Z,13.40
2018-08-30T02:13:20.002Z,13.30
2018-08-30T02:15:47.977Z,13.30
2018-08-30T02:18:15.661Z,13.30
2018-08-30T02:20:43.608Z,13.20
2018-08-30T02:23:11.023Z,13.30
2018-08-30T02:25:38.459Z,13.30
2018-08-30T02:28:05.921Z,13.30
2018-08-30T02:30:33.368Z,13.20
2018-08-30T02:33:00.864Z,13.20
2018-08-30T02:35:28.333Z,13.10
2018-08-30T02:37:55.843Z,13.20
2018-08-30T02:40:23.340Z,13.10
2018-08-30T02:42:50.739Z,12.90
2018-08-30T02:45:18.185Z,12.90
2018-08-30T02:47:45.636Z,12.90
2018-08-30T02:50:13.053Z,12.90
2018-08-30T02:52:40.479Z,12.90
2018-08-30T02:55:07.975Z,12.90
2018-08-30T02:57:35.407Z,12.90
2018-08-30T03:00:02.930Z,12.90
2018-08-30T03:02:30.363Z,13.00
2018-08-30T03:04:57.793Z,13.00
2018-08-30T03:07:25.290Z,12.90
2018-08-30T03:09:52.737Z,13.00
2018-08-30T03:12:20.146Z,13.00
2018-08-30T03:15:13.338Z,12.90
2018-08-30T03:17:40.762Z,12.80
2018-08-30T03:20:09.568Z,12.80
2018-08-30T03:22:38.244Z,12.80
2018-08-30T03:25:05.828Z,12.90
2018-08-30T03:27:33.565Z,12.90
2018-08-30T03:30:01.268Z,12.90
2018-08-30T03:32:28.708Z,13.00
2018-08-30T03:34:56.447Z,13.00
2018-08-30T03:37:23.837Z,13.00
2018-08-30T03:39:51.456Z,13.10
2018-08-30T03:42:18.882Z,13.10
2018-08-30T03:44:46.368Z,13.10
2018-08-30T03:47:13.809Z,13.10
2018-08-30T03:49:41.318Z,13.10
2018-08-30T03:52:09.171Z,13.10
2018-08-30T03:54:36.603Z,13.00
2018-08-30T03:57:04.522Z,13.10
2018-08-30T03:59:32.149Z,13.20
2018-08-30T04:01:59.927Z,13.10
2018-08-30T04:04:27.628Z,13.10
2018-08-30T04:06:55.096Z,13.10
2018-08-30T04:09:22.496Z,13.10
2018-08-30T04:11:50.113Z,13.20
2018-08-30T04:14:17.557Z,13.30
2018-08-30T04:16:45.023Z,13.30
2018-08-30T04:19:12.496Z,13.20
2018-08-30T04:21:39.958Z,13.30
2018-08-30T04:24:08.520Z,13.30
2018-08-30T04:26:36.047Z,13.30
2018-08-30T04:29:03.622Z,13.40
2018-08-30T04:31:31.121Z,13.40
2018-08-30T04:33:58.643Z,13.40
2018-08-30T04:36:26.244Z,13.40
2018-08-30T04:38:54.478Z,13.40
2018-08-30T04:41:22.374Z,13.50
2018-08-30T04:43:49.857Z,13.50
2018-08-30T04:46:17.768Z,13.40
2018-08-30T04:48:45.619Z,13.40
2018-08-30T04:51:14.021Z,13.40
2018-08-30T04:53:41.805Z,13.40
2018-08-30T04:56:09.380Z,13.50
2018-08-30T04:58:37.839Z,13.50
2018-08-30T05:01:06.459Z,13.50
2018-08-30T05:06:18.501Z,13.60
2018-08-30T05:08:47.401Z,13.60
2018-08-30T05:11:15.285Z,13.70
2018-08-30T05:13:43.336Z,13.70
2018-08-30T05:16:11.657Z,13.70
2018-08-30T05:18:39.174Z,13.60
2018-08-30T05:21:06.638Z,13.60
2018-08-30T05:23:34.094Z,13.60
2018-08-30T05:26:01.562Z,13.60
2018-08-30T05:28:29.057Z,13.70
2018-08-30T05:30:56.539Z,13.80
2018-08-30T05:33:23.925Z,13.80
2018-08-30T05:35:52.516Z,13.80
2018-08-30T05:38:21.133Z,13.90
2018-08-30T05:40:49.661Z,14.00
2018-08-30T05:43:18.066Z,14.00
2018-08-30T05:45:46.694Z,13.90
2018-08-30T05:48:14.401Z,14.00
2018-08-30T05:50:42.936Z,13.90
2018-08-30T05:55:54.932Z,14.00
2018-08-30T05:58:24.709Z,14.00
2018-08-30T06:00:53.501Z,14.00
2018-08-30T06:03:25.364Z,14.10
2018-08-30T06:05:53.200Z,14.10
2018-08-30T06:08:22.659Z,14.10
2018-08-30T06:10:51.509Z,14.20
2018-08-30T06:13:22.374Z,14.20
2018-08-30T06:15:50.641Z,14.30
2018-08-30T06:18:19.039Z,14.30
2018-08-30T06:20:47.725Z,14.20
2018-08-30T06:23:24.500Z,14.20
2018-08-30T06:25:53.327Z,14.30
2018-08-30T06:28:22.085Z,14.50
2018-08-30T06:30:50.875Z,14.50
2018-08-30T06:33:19.541Z,14.60
2018-08-30T06:35:47.539Z,14.60
2018-08-30T06:38:15.738Z,14.60
2018-08-30T06:40:44.203Z,14.60
2018-08-30T06:43:13.403Z,14.70
2018-08-30T06:45:41.592Z,14.70
2018-08-30T06:48:10.529Z,14.70
2018-08-30T06:50:40.189Z,14.70
2018-08-30T06:55:43.401Z,14.80
2018-08-30T06:58:11.720Z,15.00
2018-08-30T07:00:39.165Z,15.00
2018-08-30T07:03:06.793Z,15.10
2018-08-30T07:05:34.317Z,15.30
2018-08-30T07:08:01.882Z,15.30
2018-08-30T07:10:29.306Z,15.40
2018-08-30T07:12:56.788Z,15.50
2018-08-30T07:15:24.304Z,15.50
2018-08-30T07:17:51.735Z,15.60
2018-08-30T07:20:19.164Z,15.60
2018-08-30T07:22:46.675Z,15.70
2018-08-30T07:25:14.094Z,15.60
2018-08-30T07:27:41.538Z,15.70
2018-08-30T07:30:10.915Z,15.80
2018-08-30T07:32:38.351Z,16.00
2018-08-30T07:35:05.970Z,15.90
2018-08-30T07:37:33.346Z,15.90
2018-08-30T07:40:00.740Z,16.00
2018-08-30T07:42:28.150Z,16.10
2018-08-30T07:44:55.581Z,16.30
2018-08-30T07:47:23.058Z,16.30
2018-08-30T07:49:50.373Z,16.50
2018-08-30T07:52:17.784Z,16.60
2018-08-30T07:54:45.174Z,16.60
2018-08-30T07:57:12.669Z,16.70
2018-08-30T07:59:40.059Z,16.60
2018-08-30T08:02:07.482Z,16.50
2018-08-30T08:04:34.911Z,16.60
2018-08-30T08:07:02.385Z,16.60
2018-08-30T08:09:29.793Z,16.80
2018-08-30T08:11:57.279Z,16.90
2018-08-30T08:14:24.656Z,17.00
2018-08-30T08:16:52.072Z,17.10
2018-08-30T08:19:19.467Z,17.00
2018-08-30T08:21:46.869Z,17.20
2018-08-30T08:24:14.282Z,17.30
2018-08-30T08:26:41.690Z,17.40
2018-08-30T08:29:09.099Z,17.50
2018-08-30T08:31:36.541Z,17.60
2018-08-30T08:34:03.944Z,17.70
2018-08-30T08:36:31.382Z,17.80
2018-08-30T08:38:58.810Z,17.90
2018-08-30T08:41:26.210Z,18.00
2018-08-30T08:43:53.633Z,18.20
2018-08-30T08:46:21.077Z,18.20
2018-08-30T08:48:48.458Z,18.30
2018-08-30T08:51:15.875Z,18.30
2018-08-30T08:53:43.312Z,18.30
2018-08-30T08:56:10.741Z,18.30
2018-08-30T08:58:38.214Z,18.50
2018-08-30T09:01:05.586Z,19.20
2018-08-30T09:03:33.012Z,19.10
2018-08-30T09:06:00.473Z,19.00
2018-08-30T09:08:27.897Z,18.90
2018-08-30T09:10:55.718Z,18.70
2018-08-30T09:13:23.146Z,18.50
2018-08-30T09:15:50.618Z,18.40
2018-08-30T09:18:18.045Z,18.40
2018-08-30T09:20:45.497Z,18.30
2018-08-30T09:23:12.942Z,18.00
2018-08-30T09:25:40.380Z,18.00
2018-08-30T09:28:07.770Z,17.90
2018-08-30T09:30:35.157Z,17.90
2018-08-30T09:33:02.597Z,17.80
2018-08-30T09:35:29.976Z,17.70
2018-08-30T09:37:57.363Z,17.60
2018-08-30T09:40:24.801Z,17.80
2018-08-30T09:42:52.249Z,17.70
2018-08-30T09:45:19.632Z,17.80
2018-08-30T09:47:47.034Z,17.90
2018-08-30T09:50:14.491Z,18.00
2018-08-30T09:52:41.954Z,18.00
2018-08-30T09:55:09.453Z,18.10
2018-08-30T09:57:36.965Z,18.20
2018-08-30T10:00:05.472Z,18.20
2018-08-30T10:02:34.435Z,18.20
2018-08-30T10:05:02.110Z,18.20
2018-08-30T10:07:29.670Z,18.10
2018-08-30T10:09:57.074Z,18.00
2018-08-30T10:12:24.620Z,17.90
2018-08-30T10:14:52.040Z,18.00
2018-08-30T10:17:19.479Z,18.10
2018-08-30T10:19:46.884Z,18.40
2018-08-30T10:22:14.377Z,18.60
2018-08-30T10:24:41.793Z,18.50
2018-08-30T10:27:09.205Z,18.40
2018-08-30T10:29:36.649Z,18.30
2018-08-30T10:32:04.327Z,18.00
2018-08-30T10:34:31.949Z,18.00
2018-08-30T10:36:59.383Z,18.00
2018-08-30T10:39:26.796Z,17.80
2018-08-30T10:41:54.277Z,17.80
2018-08-30T10:44:21.656Z,17.80
2018-08-30T10:46:49.020Z,17.90
2018-08-30T10:49:16.495Z,17.80
2018-08-30T10:51:43.897Z,17.60
2018-08-30T10:54:11.309Z,17.50
2018-08-30T10:56:38.813Z,17.60
2018-08-30T10:59:06.285Z,17.50
2018-08-30T11:01:33.671Z,17.30
2018-08-30T11:04:01.129Z,17.20
2018-08-30T11:06:28.654Z,17.40
2018-08-30T11:08:56.081Z,17.40
2018-08-30T11:11:23.522Z,17.40
2018-08-30T11:13:50.899Z,17.40
2018-08-30T11:16:18.309Z,17.50
2018-08-30T11:18:45.797Z,17.50
2018-08-30T11:21:13.265Z,17.60
2018-08-30T11:23:40.717Z,17.60
2018-08-30T11:26:08.103Z,17.60
2018-08-30T11:28:35.543Z,17.50
2018-08-30T11:31:02.951Z,17.60
2018-08-30T11:33:30.392Z,17.50
2018-08-30T11:35:57.824Z,17.40
2018-08-30T11:38:25.274Z,17.40
2018-08-30T11:40:52.954Z,17.30
2018-08-30T11:43:20.441Z,17.30
2018-08-30T11:45:47.748Z,17.40
2018-08-30T11:48:15.226Z,17.20
2018-08-30T11:50:42.644Z,17.30
2018-08-30T11:53:10.082Z,17.30
2018-08-30T11:55:37.468Z,17.30
2018-08-30T11:58:04.926Z,17.40
2018-08-30T12:00:32.364Z,17.40
2018-08-30T12:02:59.953Z,17.50
2018-08-30T12:05:27.449Z,17.50
2018-08-30T12:07:56.007Z,17.30
2018-08-30T12:10:23.491Z,17.20
2018-08-30T12:12:50.851Z,17.30
2018-08-30T12:15:18.265Z,17.30
2018-08-30T12:17:45.757Z,17.40
2018-08-30T12:20:13.157Z,17.30
2018-08-30T12:22:40.568Z,17.40
2018-08-30T12:25:07.953Z,17.60
2018-08-30T12:27:35.317Z,17.60
2018-08-30T12:30:02.807Z,17.70
2018-08-30T12:32:30.276Z,17.80
2018-08-30T12:34:57.689Z,17.80
2018-08-30T12:37:25.116Z,17.80
2018-08-30T12:39:52.544Z,17.80
2018-08-30T12:42:20.052Z,17.80
2018-08-30T12:44:47.315Z,18.00
2018-08-30T12:47:14.791Z,17.80
2018-08-30T12:49:42.250Z,17.80
2018-08-30T12:52:09.718Z,17.80
2018-08-30T12:54:37.131Z,17.70
2018-08-30T12:57:04.694Z,17.70
2018-08-30T12:59:42.423Z,17.70
2018-08-30T13:02:10.042Z,17.70
2018-08-30T13:04:37.731Z,17.80
2018-08-30T13:07:05.020Z,17.80
2018-08-30T13:09:32.517Z,17.60
2018-08-30T13:12:00.444Z,17.50
2018-08-30T13:14:28.206Z,17.50
2018-08-30T13:16:55.963Z,17.40
2018-08-30T13:19:23.783Z,17.40
2018-08-30T13:21:51.472Z,17.60
2018-08-30T13:24:18.911Z,17.60
2018-08-30T13:26:46.405Z,17.60
2018-08-30T13:29:13.947Z,17.60
2018-08-30T13:31:42.216Z,17.60
2018-08-30T13:34:09.640Z,17.40
2018-08-30T13:36:36.992Z,17.10
2018-08-30T13:39:07.446Z,17.10
2018-08-30T13:41:34.921Z,17.10
2018-08-30T13:44:02.244Z,17.10
2018-08-30T13:46:29.666Z,17.10
2018-08-30T13:48:57.255Z,17.00
2018-08-30T13:51:24.527Z,17.20
2018-08-30T13:53:51.976Z,17.10
2018-08-30T13:56:19.520Z,17.00
2018-08-30T13:58:47.007Z,17.00
2018-08-30T14:01:14.420Z,17.00
2018-08-30T14:03:41.691Z,16.90
2018-08-30T14:06:09.292Z,17.10
2018-08-30T14:08:36.583Z,17.00
2018-08-30T14:11:04.289Z,17.10
2018-08-30T14:13:31.663Z,17.10
2018-08-30T14:15:58.855Z,17.10
2018-08-30T14:18:26.316Z,17.10
2018-08-30T14:20:53.695Z,17.00
2018-08-30T14:23:21.198Z,17.10
2018-08-30T14:25:48.546Z,17.00
2018-08-30T14:28:15.999Z,17.10
2018-08-30T14:30:43.440Z,17.10
2018-08-30T14:33:10.997Z,17.10
2018-08-30T14:35:38.333Z,17.10
2018-08-30T14:38:05.771Z,17.10
2018-08-30T14:40:33.773Z,17.10
2018-08-30T14:43:01.197Z,17.10
2018-08-30T14:45:28.580Z,17.10
2018-08-30T14:47:56.058Z,17.10
2018-08-30T14:50:23.474Z,17.10
2018-08-30T14:52:50.909Z,17.20
2018-08-30T14:55:18.315Z,17.10
2018-08-30T14:57:45.747Z,17.10
2018-08-30T15:00:13.236Z,17.00
2018-08-30T15:02:40.626Z,17.00
2018-08-30T15:05:08.204Z,16.90
2018-08-30T15:07:35.522Z,16.90
2018-08-30T15:10:03.046Z,16.90
2018-08-30T15:12:30.608Z,16.90
2018-08-30T15:14:58.022Z,16.90
2018-08-30T15:17:25.401Z,16.90
2018-08-30T15:19:52.871Z,16.80
2018-08-30T15:22:20.266Z,16.80
2018-08-30T15:24:47.653Z,16.90
2018-08-30T15:27:15.309Z,17.00
2018-08-30T15:29:42.695Z,16.90
2018-08-30T15:32:10.111Z,16.90
2018-08-30T15:34:37.505Z,16.80
2018-08-30T15:37:04.982Z,16.80
2018-08-30T15:39:32.408Z,16.70
2018-08-30T15:41:59.916Z,16.60
2018-08-30T15:44:27.245Z,16.50
2018-08-30T15:46:54.676Z,16.50
2018-08-30T15:49:22.093Z,16.60
2018-08-30T15:51:49.529Z,16.60
2018-08-30T15:54:16.905Z,16.40
2018-08-30T15:56:44.414Z,16.30
2018-08-30T15:59:11.865Z,16.30
2018-08-30T16:01:39.270Z,16.20
2018-08-30T16:04:06.680Z,16.20
2018-08-30T16:06:34.177Z,16.30
2018-08-30T16:09:01.538Z,16.50
2018-08-30T16:11:28.941Z,16.50
2018-08-30T16:13:56.384Z,16.40
2018-08-30T16:16:23.812Z,16.40
2018-08-30T16:18:51.322Z,16.30
2018-08-30T16:21:18.588Z,16.40
2018-08-30T16:23:46.023Z,16.40
2018-08-30T16:26:13.456Z,16.40
2018-08-30T16:28:40.877Z,16.40
2018-08-30T16:31:08.337Z,16.30
2018-08-30T16:33:35.850Z,16.20
2018-08-30T16:36:03.662Z,16.10
2018-08-30T16:38:31.772Z,16.10
2018-08-30T16:40:59.973Z,16.10
2018-08-30T16:43:28.640Z,16.10
2018-08-30T16:45:59.312Z,16.00
2018-08-30T16:48:27.075Z,16.00
2018-08-30T16:50:54.588Z,16.00
2018-08-30T16:53:22.017Z,15.90
2018-08-30T16:55:49.470Z,15.90
2018-08-30T16:58:16.937Z,15.80
2018-08-30T17:00:44.333Z,15.70
2018-08-30T17:03:11.830Z,15.70
2018-08-30T17:05:39.298Z,15.50
2018-08-30T17:08:06.790Z,15.40
2018-08-30T17:10:34.306Z,15.40
2018-08-30T17:13:01.856Z,15.40
2018-08-30T17:15:29.453Z,15.30
2018-08-30T17:17:56.968Z,15.40
2018-08-30T17:20:29.407Z,15.30
2018-08-30T17:22:56.809Z,15.20
2018-08-30T17:25:24.583Z,15.20
2018-08-30T17:27:52.107Z,15.00
2018-08-30T17:30:19.921Z,15.00
2018-08-30T17:32:48.312Z,14.90
2018-08-30T17:35:16.099Z,14.80
2018-08-30T17:37:43.952Z,14.80
2018-08-30T17:40:11.691Z,14.80
2018-08-30T17:42:40.312Z,14.80
2018-08-30T17:45:08.519Z,14.60
2018-08-30T17:47:45.039Z,14.50
2018-08-30T17:50:16.334Z,14.40
2018-08-30T17:52:47.837Z,14.30
2018-08-30T17:58:23.072Z,14.30
2018-08-30T18:00:52.302Z,14.20
2018-08-30T18:03:27.355Z,14.30
2018-08-30T18:05:55.973Z,14.20
2018-08-30T18:08:25.412Z,14.20
2018-08-30T18:17:05.746Z,14.20
2018-08-30T18:19:34.689Z,14.20
2018-08-30T18:22:03.432Z,14.20
2018-08-30T18:25:03.003Z,14.30
2018-08-30T18:27:34.016Z,14.40
2018-08-30T18:30:03.091Z,14.20
2018-08-30T18:32:31.339Z,14.20
2018-08-30T18:34:59.664Z,14.20
2018-08-30T18:37:28.221Z,14.20
2018-08-30T18:39:56.750Z,14.20
2018-08-30T18:42:25.012Z,14.10
2018-08-30T18:44:53.001Z,14.10
2018-08-30T18:47:20.715Z,14.00
2018-08-30T18:49:48.230Z,14.00
2018-08-30T18:52:15.851Z,14.00
2018-08-30T18:54:43.360Z,14.10
2018-08-30T18:57:10.925Z,14.10
2018-08-30T18:59:39.403Z,14.10
2018-08-30T19:02:07.545Z,14.20
2018-08-30T19:04:35.179Z,14.20
2018-08-30T19:07:02.741Z,14.20
2018-08-30T19:09:30.279Z,14.20
2018-08-30T19:11:58.240Z,14.20
2018-08-30T19:14:25.828Z,14.10
2018-08-30T19:16:59.257Z,14.10
2018-08-30T19:19:27.706Z,14.00
2018-08-30T19:21:55.522Z,14.00
2018-08-30T19:24:29.361Z,14.00
2018-08-30T19:26:57.077Z,14.00
2018-08-30T19:29:24.616Z,14.00
2018-08-30T19:31:52.327Z,14.10
2018-08-30T19:34:20.605Z,14.10
2018-08-30T19:36:48.292Z,14.10
2018-08-30T19:39:15.865Z,14.00
2018-08-30T19:41:43.381Z,14.00
2018-08-30T19:44:10.964Z,14.00
2018-08-30T19:46:38.450Z,14.00
2018-08-30T19:49:06.099Z,14.00
2018-08-30T19:51:33.593Z,14.00
2018-08-30T19:54:01.084Z,14.00
2018-08-30T19:56:28.624Z,14.00
2018-08-30T19:58:56.208Z,14.00
2018-08-30T20:01:23.705Z,14.00
2018-08-30T20:03:51.219Z,13.90
2018-08-30T20:06:18.690Z,13.90
2018-08-30T20:08:46.124Z,13.90
2018-08-30T20:11:13.548Z,13.80
2018-08-30T20:13:41.011Z,13.80
2018-08-30T20:16:08.438Z,13.80
2018-08-30T20:18:35.921Z,13.80
2018-08-30T20:21:03.496Z,13.90
2018-08-30T20:23:31.043Z,13.90
2018-08-30T20:25:58.684Z,14.00
2018-08-30T20:28:27.381Z,14.00
2018-08-30T20:30:55.359Z,14.00
2018-08-30T20:33:23.102Z,14.10
2018-08-30T20:35:50.868Z,14.00
2018-08-30T20:38:19.728Z,14.00
2018-08-30T20:40:47.495Z,14.00
2018-08-30T20:43:15.027Z,14.00
2018-08-30T20:45:42.841Z,14.00
2018-08-30T20:48:12.977Z,14.00
2018-08-30T20:50:41.776Z,14.00
2018-08-30T20:53:17.335Z,14.00
2018-08-30T20:55:48.481Z,14.00
2018-08-30T20:59:39.550Z,14.10
2018-08-30T21:02:08.289Z,14.10
2018-08-30T21:04:37.226Z,14.00
2018-08-30T21:07:05.492Z,14.00
2018-08-30T21:09:33.337Z,14.00
2018-08-30T21:12:01.054Z,14.00
2018-08-30T21:14:28.656Z,14.00
2018-08-30T21:16:56.138Z,14.00
2018-08-30T21:19:23.795Z,14.00
2018-08-30T21:21:51.498Z,14.00
2018-08-30T21:24:19.511Z,13.90
2018-08-30T21:26:47.387Z,13.90
2018-08-30T21:29:15.020Z,13.90
2018-08-30T21:31:42.741Z,13.90
2018-08-30T21:34:10.263Z,14.00
2018-08-30T21:36:37.803Z,14.00
2018-08-30T21:39:06.925Z,13.90
2018-08-30T21:41:35.157Z,14.00
2018-08-30T21:44:02.980Z,14.00
2018-08-30T21:46:30.724Z,14.00
2018-08-30T21:48:58.299Z,14.00
2018-08-30T21:51:26.086Z,14.00
2018-08-30T21:53:53.784Z,14.00
2018-08-30T21:56:21.771Z,14.10
2018-08-30T21:58:49.680Z,14.10
2018-08-30T22:01:17.576Z,14.10
2018-08-30T22:06:53.812Z,14.00
2018-08-30T22:09:30.058Z,14.00
2018-08-30T22:11:58.667Z,14.00
2018-08-30T22:14:26.932Z,14.00
2018-08-30T22:16:56.024Z,13.90
2018-08-30T22:19:27.806Z,13.90
2018-08-30T22:21:56.091Z,13.90
2018-08-30T22:24:24.956Z,13.90
2018-08-30T22:26:53.260Z,14.00
2018-08-30T22:29:21.519Z,14.00
2018-08-30T22:31:50.434Z,14.00
2018-08-30T22:34:20.251Z,13.90
2018-08-30T22:36:48.674Z,13.90
2018-08-30T22:39:21.313Z,13.90
2018-08-30T22:41:52.328Z,13.90
2018-08-30T22:44:28.136Z,14.00
2018-08-30T22:46:56.925Z,14.00
2018-08-30T22:49:25.794Z,13.90
2018-08-30T22:51:54.586Z,13.90
2018-08-30T22:54:23.188Z,13.80
2018-08-30T22:56:52.375Z,13.80
2018-08-30T22:59:20.720Z,13.80
2018-08-30T23:01:49.463Z,13.80
2018-08-30T23:04:18.817Z,13.80
2018-08-30T23:06:50.408Z,13.90
2018-08-30T23:09:19.099Z,13.90
2018-08-30T23:11:48.453Z,13.90
2018-08-30T23:14:17.250Z,13.90
2018-08-30T23:16:45.557Z,13.80
2018-08-30T23:19:13.958Z,13.70
2018-08-30T23:21:42.545Z,13.70
2018-08-30T23:24:11.132Z,13.60
2018-08-30T23:26:39.698Z,13.60
2018-08-30T23:29:09.024Z,13.70
2018-08-30T23:31:42.996Z,13.70
2018-08-30T23:34:31.492Z,13.80
2018-08-30T23:37:00.677Z,13.80
2018-08-30T23:39:33.049Z,13.80
2018-08-30T23:42:11.009Z,13.80
2018-08-30T23:44:46.910Z,13.80
2018-08-30T23:47:20.276Z,13.70
2018-08-30T23:52:37.575Z,13.70
2018-08-30T23:55:06.196Z,13.70
2018-08-30T23:57:35.278Z,13.70
